RYR2UH EPKK-LYPG
Flight info
| Callsign | RYR2UH |
|---|---|
| Flight time | 1h 24m |
| Altitude | 37000 |
| Route | BABKO DCT VADEX DCT PARAK/N0446F380 DCT MOJ |
| Aircraft | B38M/M-SDE1FGHILORVWXY/HB1 |
Departure
| Time | 2026-05-09 10:26 |
|---|---|
| Airport | Kraków John Paul II International Airport (EPKK) |
Arrival
| Time | 2026-05-09 11:50 |
|---|---|
| Airport | Podgorica Airport / Podgorica Golubovci Airbase (LYPG) |
| Time | Latitude | Longitude | Altitude | Speed | Heading |
|---|---|---|---|---|---|
| 2026-05-09 09:31 | 50.07354 | 19.80386 | 792 ft | 0 kts | 168° |
| 2026-05-09 10:12 | 50.07371 | 19.80380 | 793 ft | 4 kts | 167° |
| 2026-05-09 10:12 | 50.07389 | 19.80374 | 793 ft | 4 kts | 166° |
| 2026-05-09 10:13 | 50.07415 | 19.80362 | 793 ft | 4 kts | 160° |
| 2026-05-09 10:13 | 50.07433 | 19.80347 | 793 ft | 2 kts | 134° |
| 2026-05-09 10:13 | 50.07440 | 19.80331 | 793 ft | 2 kts | 100° |
| 2026-05-09 10:13 | 50.07440 | 19.80312 | 793 ft | 2 kts | 83° |
| 2026-05-09 10:14 | 50.07439 | 19.80295 | 793 ft | 2 kts | 78° |
| 2026-05-09 10:14 | 50.07437 | 19.80286 | 793 ft | 0 kts | 78° |
| 2026-05-09 10:16 | 50.07438 | 19.80290 | 793 ft | 2 kts | 78° |
| 2026-05-09 10:17 | 50.07442 | 19.80322 | 793 ft | 5 kts | 78° |
| 2026-05-09 10:17 | 50.07464 | 19.80372 | 793 ft | 7 kts | 28° |
| 2026-05-09 10:17 | 50.07518 | 19.80399 | 793 ft | 10 kts | 18° |
| 2026-05-09 10:17 | 50.07586 | 19.80425 | 793 ft | 10 kts | 354° |
| 2026-05-09 10:18 | 50.07653 | 19.80401 | 793 ft | 10 kts | 348° |
| 2026-05-09 10:18 | 50.07720 | 19.80379 | 793 ft | 9 kts | 348° |
| 2026-05-09 10:18 | 50.07776 | 19.80360 | 793 ft | 7 kts | 348° |
| 2026-05-09 10:18 | 50.07822 | 19.80344 | 793 ft | 2 kts | 348° |
| 2026-05-09 10:19 | 50.07839 | 19.80339 | 793 ft | 0 kts | 347° |
| 2026-05-09 10:23 | 50.07842 | 19.80338 | 793 ft | 2 kts | 347° |
| 2026-05-09 10:23 | 50.07865 | 19.80330 | 793 ft | 5 kts | 347° |
| 2026-05-09 10:24 | 50.07910 | 19.80314 | 793 ft | 8 kts | 347° |
| 2026-05-09 10:24 | 50.07980 | 19.80290 | 792 ft | 12 kts | 347° |
| 2026-05-09 10:24 | 50.08017 | 19.80225 | 792 ft | 0 kts | 259° |
| 2026-05-09 10:25 | 50.08016 | 19.80221 | 792 ft | 1 kts | 258° |
| 2026-05-09 10:25 | 50.08011 | 19.80176 | 792 ft | 17 kts | 258° |
| 2026-05-09 10:25 | 50.07932 | 19.79607 | 793 ft | 88 kts | 258° |
| 2026-05-09 10:25 | 50.07760 | 19.78365 | 794 ft | 143 kts | 258° |
| 2026-05-09 10:26 | 50.07531 | 19.76733 | 1187 ft | 155 kts | 259° |
| 2026-05-09 10:26 | 50.07287 | 19.75085 | 1883 ft | 158 kts | 257° |
| 2026-05-09 10:26 | 50.07005 | 19.73392 | 2489 ft | 164 kts | 257° |
| 2026-05-09 10:26 | 50.06743 | 19.71634 | 3047 ft | 176 kts | 259° |
| 2026-05-09 10:27 | 50.06482 | 19.69662 | 3499 ft | 197 kts | 259° |
| 2026-05-09 10:27 | 50.06066 | 19.67479 | 3815 ft | 228 kts | 241° |
| 2026-05-09 10:27 | 50.04821 | 19.65781 | 4270 ft | 252 kts | 204° |
| 2026-05-09 10:27 | 50.03056 | 19.65179 | 4948 ft | 266 kts | 188° |
| 2026-05-09 10:28 | 50.01252 | 19.64575 | 5905 ft | 265 kts | 199° |
| 2026-05-09 10:28 | 49.99482 | 19.63678 | 6807 ft | 269 kts | 199° |
| 2026-05-09 10:28 | 49.97678 | 19.62815 | 7669 ft | 272 kts | 198° |
| 2026-05-09 10:28 | 49.95853 | 19.61977 | 8533 ft | 276 kts | 198° |
| 2026-05-09 10:29 | 49.93995 | 19.61142 | 9408 ft | 279 kts | 198° |
| 2026-05-09 10:29 | 49.92114 | 19.60309 | 10246 ft | 282 kts | 198° |
| 2026-05-09 10:29 | 49.90234 | 19.59485 | 11032 ft | 286 kts | 198° |
| 2026-05-09 10:29 | 49.88307 | 19.58645 | 11875 ft | 289 kts | 198° |
| 2026-05-09 10:30 | 49.86359 | 19.57799 | 12750 ft | 293 kts | 198° |
| 2026-05-09 10:30 | 49.84382 | 19.56942 | 13647 ft | 297 kts | 198° |
| 2026-05-09 10:30 | 49.82368 | 19.56068 | 14389 ft | 307 kts | 198° |
| 2026-05-09 10:30 | 49.80244 | 19.55141 | 14824 ft | 325 kts | 198° |
| 2026-05-09 10:31 | 49.78022 | 19.54173 | 15385 ft | 337 kts | 198° |
| 2026-05-09 10:31 | 49.75749 | 19.53190 | 16205 ft | 340 kts | 198° |
| 2026-05-09 10:31 | 49.73448 | 19.52200 | 17017 ft | 345 kts | 198° |
| 2026-05-09 10:31 | 49.71122 | 19.51199 | 17772 ft | 349 kts | 198° |
| 2026-05-09 10:32 | 49.68802 | 19.50202 | 18527 ft | 352 kts | 198° |
| 2026-05-09 10:32 | 49.66423 | 19.49180 | 19187 ft | 356 kts | 198° |
| 2026-05-09 10:32 | 49.64024 | 19.48152 | 19851 ft | 359 kts | 198° |
| 2026-05-09 10:32 | 49.61596 | 19.47175 | 20523 ft | 363 kts | 194° |
| 2026-05-09 10:33 | 49.59053 | 19.47086 | 21192 ft | 371 kts | 172° |
| 2026-05-09 10:33 | 49.56525 | 19.47996 | 21853 ft | 376 kts | 170° |
| 2026-05-09 10:33 | 49.53941 | 19.48573 | 22457 ft | 376 kts | 179° |
| 2026-05-09 10:33 | 49.51309 | 19.48893 | 23100 ft | 381 kts | 176° |
| 2026-05-09 10:34 | 49.48665 | 19.49373 | 23717 ft | 384 kts | 176° |
| 2026-05-09 10:34 | 49.43325 | 19.50389 | 24844 ft | 389 kts | 176° |
| 2026-05-09 10:34 | 49.40633 | 19.50906 | 25407 ft | 391 kts | 176° |
| 2026-05-09 10:35 | 49.37917 | 19.51428 | 25930 ft | 394 kts | 176° |
| 2026-05-09 10:35 | 49.35194 | 19.51950 | 26461 ft | 396 kts | 177° |
| 2026-05-09 10:35 | 49.32451 | 19.52476 | 27006 ft | 397 kts | 177° |
| 2026-05-09 10:35 | 49.29702 | 19.53003 | 27514 ft | 400 kts | 177° |
| 2026-05-09 10:36 | 49.26969 | 19.53526 | 28031 ft | 402 kts | 178° |
| 2026-05-09 10:36 | 49.24188 | 19.54057 | 28561 ft | 404 kts | 178° |
| 2026-05-09 10:36 | 49.21378 | 19.54594 | 29051 ft | 407 kts | 178° |
| 2026-05-09 10:36 | 49.18561 | 19.55131 | 29557 ft | 409 kts | 178° |
| 2026-05-09 10:37 | 49.15729 | 19.55670 | 30043 ft | 411 kts | 178° |
| 2026-05-09 10:37 | 49.12882 | 19.56213 | 30461 ft | 414 kts | 178° |
| 2026-05-09 10:37 | 49.10010 | 19.56758 | 30792 ft | 418 kts | 178° |
| 2026-05-09 10:37 | 49.07117 | 19.57307 | 31120 ft | 421 kts | 178° |
| 2026-05-09 10:38 | 49.04195 | 19.57861 | 31465 ft | 424 kts | 178° |
| 2026-05-09 10:38 | 49.01255 | 19.58418 | 31823 ft | 427 kts | 178° |
| 2026-05-09 10:38 | 48.98295 | 19.58977 | 32152 ft | 431 kts | 178° |
| 2026-05-09 10:38 | 48.95305 | 19.59542 | 32504 ft | 434 kts | 178° |
| 2026-05-09 10:39 | 48.92296 | 19.60110 | 32844 ft | 437 kts | 178° |
| 2026-05-09 10:39 | 48.89303 | 19.60673 | 33165 ft | 441 kts | 178° |
| 2026-05-09 10:39 | 48.86207 | 19.61256 | 33510 ft | 444 kts | 178° |
| 2026-05-09 10:39 | 48.83176 | 19.61826 | 33829 ft | 447 kts | 179° |
| 2026-05-09 10:40 | 48.80085 | 19.62407 | 34243 ft | 447 kts | 179° |
| 2026-05-09 10:40 | 48.77005 | 19.62985 | 34604 ft | 447 kts | 178° |
| 2026-05-09 10:40 | 48.73916 | 19.63563 | 34983 ft | 447 kts | 178° |
| 2026-05-09 10:40 | 48.70824 | 19.64142 | 35357 ft | 447 kts | 178° |
| 2026-05-09 10:41 | 48.67741 | 19.64717 | 35721 ft | 447 kts | 178° |
| 2026-05-09 10:41 | 48.64653 | 19.65293 | 36089 ft | 446 kts | 178° |
| 2026-05-09 10:41 | 48.61566 | 19.65868 | 36439 ft | 446 kts | 178° |
| 2026-05-09 10:41 | 48.58478 | 19.66442 | 36786 ft | 446 kts | 178° |
| 2026-05-09 10:42 | 48.55403 | 19.67013 | 37065 ft | 447 kts | 178° |
| 2026-05-09 10:42 | 48.52305 | 19.67588 | 37109 ft | 447 kts | 178° |
| 2026-05-09 10:42 | 48.46192 | 19.68721 | 37086 ft | 444 kts | 178° |
| 2026-05-09 10:43 | 48.40035 | 19.69859 | 37080 ft | 445 kts | 178° |
| 2026-05-09 10:43 | 48.33892 | 19.70992 | 37085 ft | 445 kts | 178° |
| 2026-05-09 10:44 | 48.27752 | 19.72121 | 37088 ft | 445 kts | 178° |
| 2026-05-09 10:44 | 48.21603 | 19.73249 | 37083 ft | 445 kts | 178° |
| 2026-05-09 10:46 | 48.06273 | 19.76051 | 37084 ft | 444 kts | 178° |
| 2026-05-09 10:46 | 48.00135 | 19.77168 | 37081 ft | 445 kts | 178° |
| 2026-05-09 10:47 | 47.93981 | 19.78285 | 37082 ft | 444 kts | 178° |
| 2026-05-09 10:47 | 47.87836 | 19.79398 | 37084 ft | 444 kts | 178° |
| 2026-05-09 10:48 | 47.81691 | 19.80508 | 37084 ft | 444 kts | 178° |
| 2026-05-09 10:48 | 47.75595 | 19.81606 | 37080 ft | 444 kts | 178° |
| 2026-05-09 10:49 | 47.69463 | 19.82709 | 37080 ft | 444 kts | 178° |
| 2026-05-09 10:49 | 47.63335 | 19.83808 | 37079 ft | 443 kts | 178° |
| 2026-05-09 10:50 | 47.57205 | 19.84906 | 37083 ft | 443 kts | 178° |
| 2026-05-09 10:50 | 47.51120 | 19.85992 | 37077 ft | 442 kts | 179° |
| 2026-05-09 10:51 | 47.45003 | 19.87081 | 37074 ft | 442 kts | 179° |
| 2026-05-09 10:51 | 47.38898 | 19.88166 | 37084 ft | 441 kts | 179° |
| 2026-05-09 10:52 | 47.32805 | 19.89246 | 37079 ft | 441 kts | 179° |
| 2026-05-09 10:52 | 47.26715 | 19.90324 | 37079 ft | 440 kts | 179° |
| 2026-05-09 10:53 | 47.20669 | 19.91391 | 37075 ft | 440 kts | 179° |
| 2026-05-09 10:53 | 47.14591 | 19.92461 | 37075 ft | 440 kts | 179° |
| 2026-05-09 10:54 | 47.08518 | 19.93527 | 37073 ft | 439 kts | 179° |
| 2026-05-09 10:54 | 47.02456 | 19.94590 | 37095 ft | 439 kts | 179° |
| 2026-05-09 10:55 | 46.96390 | 19.95651 | 37099 ft | 438 kts | 179° |
| 2026-05-09 10:55 | 46.90340 | 19.96706 | 37095 ft | 438 kts | 179° |
| 2026-05-09 10:56 | 46.84284 | 19.97760 | 37093 ft | 437 kts | 179° |
| 2026-05-09 10:56 | 46.78274 | 19.98804 | 37088 ft | 437 kts | 179° |
| 2026-05-09 10:57 | 46.72231 | 19.99851 | 37086 ft | 436 kts | 179° |
| 2026-05-09 10:57 | 46.66205 | 20.00893 | 37083 ft | 436 kts | 179° |
| 2026-05-09 10:58 | 46.60191 | 20.01930 | 37079 ft | 435 kts | 179° |
| 2026-05-09 10:58 | 46.54178 | 20.02965 | 37076 ft | 434 kts | 179° |
| 2026-05-09 10:59 | 46.48215 | 20.03989 | 37076 ft | 435 kts | 179° |
| 2026-05-09 10:59 | 46.42199 | 20.05020 | 37076 ft | 435 kts | 179° |
| 2026-05-09 11:00 | 46.37209 | 20.05874 | 37080 ft | 435 kts | 178° |
| 2026-05-09 11:00 | 46.31196 | 20.06901 | 37076 ft | 435 kts | 178° |
| 2026-05-09 11:01 | 46.25188 | 20.07924 | 37076 ft | 435 kts | 178° |
| 2026-05-09 11:01 | 46.19181 | 20.08945 | 37070 ft | 434 kts | 178° |
| 2026-05-09 11:02 | 46.13221 | 20.09063 | 37087 ft | 421 kts | 195° |
| 2026-05-09 11:02 | 46.07417 | 20.07554 | 37064 ft | 426 kts | 190° |
| 2026-05-09 11:03 | 46.01548 | 20.06816 | 37077 ft | 425 kts | 191° |
| 2026-05-09 11:03 | 45.95673 | 20.05895 | 37074 ft | 424 kts | 191° |
| 2026-05-09 11:04 | 45.89807 | 20.04913 | 37078 ft | 424 kts | 191° |
| 2026-05-09 11:04 | 45.83933 | 20.03922 | 37073 ft | 424 kts | 191° |
| 2026-05-09 11:05 | 45.78111 | 20.02942 | 37068 ft | 424 kts | 191° |
| 2026-05-09 11:05 | 45.72248 | 20.01958 | 37067 ft | 423 kts | 191° |
| 2026-05-09 11:06 | 45.66385 | 20.00975 | 37065 ft | 423 kts | 191° |
| 2026-05-09 11:06 | 45.60540 | 19.99998 | 37065 ft | 423 kts | 191° |
| 2026-05-09 11:07 | 45.54684 | 19.99021 | 37066 ft | 423 kts | 191° |
| 2026-05-09 11:07 | 45.48837 | 19.98048 | 37071 ft | 423 kts | 191° |
| 2026-05-09 11:08 | 45.43027 | 19.97082 | 37069 ft | 423 kts | 191° |
| 2026-05-09 11:08 | 45.37173 | 19.96111 | 37065 ft | 423 kts | 191° |
| 2026-05-09 11:09 | 45.31323 | 19.95144 | 37072 ft | 423 kts | 191° |
| 2026-05-09 11:09 | 45.25477 | 19.94178 | 37066 ft | 423 kts | 191° |
| 2026-05-09 11:10 | 45.19634 | 19.93216 | 37066 ft | 423 kts | 191° |
| 2026-05-09 11:10 | 45.13793 | 19.92256 | 37066 ft | 422 kts | 191° |
| 2026-05-09 11:11 | 45.07989 | 19.91303 | 37075 ft | 423 kts | 191° |
| 2026-05-09 11:11 | 45.02136 | 19.90344 | 37071 ft | 422 kts | 191° |
| 2026-05-09 11:12 | 44.96322 | 19.89394 | 37072 ft | 423 kts | 191° |
| 2026-05-09 11:12 | 44.90484 | 19.88442 | 37071 ft | 423 kts | 191° |
| 2026-05-09 11:13 | 44.84630 | 19.87489 | 37068 ft | 423 kts | 190° |
| 2026-05-09 11:13 | 44.78816 | 19.86545 | 37073 ft | 423 kts | 190° |
| 2026-05-09 11:14 | 44.72970 | 19.85597 | 37077 ft | 423 kts | 190° |
| 2026-05-09 11:14 | 44.67120 | 19.84651 | 37077 ft | 423 kts | 190° |
| 2026-05-09 11:15 | 44.61261 | 19.83705 | 37078 ft | 423 kts | 190° |
| 2026-05-09 11:15 | 44.55417 | 19.82764 | 37082 ft | 423 kts | 190° |
| 2026-05-09 11:16 | 44.49557 | 19.81822 | 37082 ft | 421 kts | 190° |
| 2026-05-09 11:16 | 44.46700 | 19.81365 | 37047 ft | 405 kts | 190° |
| 2026-05-09 11:16 | 44.43924 | 19.80920 | 36624 ft | 400 kts | 190° |
| 2026-05-09 11:16 | 44.41160 | 19.80476 | 36034 ft | 400 kts | 190° |
| 2026-05-09 11:17 | 44.38429 | 19.80038 | 35517 ft | 399 kts | 190° |
| 2026-05-09 11:17 | 44.35676 | 19.79598 | 35009 ft | 397 kts | 190° |
| 2026-05-09 11:17 | 44.32940 | 19.79161 | 34516 ft | 395 kts | 190° |
| 2026-05-09 11:17 | 44.30215 | 19.78726 | 34006 ft | 393 kts | 190° |
| 2026-05-09 11:18 | 44.27503 | 19.78293 | 33451 ft | 392 kts | 189° |
| 2026-05-09 11:18 | 44.24806 | 19.77863 | 32939 ft | 389 kts | 189° |
| 2026-05-09 11:18 | 44.22117 | 19.77435 | 32466 ft | 387 kts | 189° |
| 2026-05-09 11:18 | 44.19446 | 19.77011 | 31994 ft | 384 kts | 189° |
| 2026-05-09 11:19 | 44.16796 | 19.76591 | 31524 ft | 382 kts | 189° |
| 2026-05-09 11:19 | 44.14173 | 19.76173 | 31074 ft | 380 kts | 189° |
| 2026-05-09 11:19 | 44.12371 | 19.75886 | 30758 ft | 379 kts | 189° |
| 2026-05-09 11:20 | 44.09768 | 19.75474 | 30326 ft | 377 kts | 189° |
| 2026-05-09 11:20 | 44.08623 | 19.75293 | 30124 ft | 376 kts | 189° |
| 2026-05-09 11:20 | 44.06036 | 19.74883 | 29613 ft | 375 kts | 189° |
| 2026-05-09 11:20 | 44.03447 | 19.74474 | 29167 ft | 372 kts | 189° |
| 2026-05-09 11:21 | 44.00887 | 19.74069 | 28746 ft | 370 kts | 189° |
| 2026-05-09 11:21 | 43.98335 | 19.73666 | 28333 ft | 367 kts | 189° |
| 2026-05-09 11:21 | 43.95804 | 19.73267 | 27932 ft | 364 kts | 189° |
| 2026-05-09 11:21 | 43.93296 | 19.72872 | 27524 ft | 362 kts | 189° |
| 2026-05-09 11:22 | 43.90797 | 19.72478 | 27112 ft | 360 kts | 189° |
| 2026-05-09 11:22 | 43.88324 | 19.72089 | 26731 ft | 357 kts | 189° |
| 2026-05-09 11:22 | 43.85888 | 19.71706 | 26349 ft | 356 kts | 188° |
| 2026-05-09 11:22 | 43.83436 | 19.71320 | 25963 ft | 354 kts | 188° |
| 2026-05-09 11:23 | 43.80989 | 19.70936 | 25585 ft | 352 kts | 188° |
| 2026-05-09 11:23 | 43.78549 | 19.70553 | 25208 ft | 351 kts | 188° |
| 2026-05-09 11:23 | 43.76124 | 19.70173 | 24832 ft | 350 kts | 188° |
| 2026-05-09 11:23 | 43.73710 | 19.69795 | 24464 ft | 349 kts | 188° |
| 2026-05-09 11:24 | 43.71306 | 19.69419 | 24100 ft | 347 kts | 188° |
| 2026-05-09 11:24 | 43.68898 | 19.69042 | 23734 ft | 347 kts | 188° |
| 2026-05-09 11:24 | 43.66505 | 19.68669 | 23310 ft | 346 kts | 188° |
| 2026-05-09 11:24 | 43.64116 | 19.68296 | 22917 ft | 344 kts | 188° |
| 2026-05-09 11:25 | 43.61745 | 19.67926 | 22546 ft | 341 kts | 188° |
| 2026-05-09 11:25 | 43.59392 | 19.67559 | 22197 ft | 338 kts | 188° |
| 2026-05-09 11:25 | 43.57063 | 19.67197 | 21841 ft | 336 kts | 188° |
| 2026-05-09 11:25 | 43.54775 | 19.66840 | 21493 ft | 334 kts | 187° |
| 2026-05-09 11:26 | 43.52467 | 19.66482 | 21148 ft | 332 kts | 187° |
| 2026-05-09 11:26 | 43.50186 | 19.66127 | 20803 ft | 330 kts | 187° |
| 2026-05-09 11:26 | 43.47906 | 19.65773 | 20465 ft | 328 kts | 187° |
| 2026-05-09 11:26 | 43.45641 | 19.65421 | 20122 ft | 326 kts | 187° |
| 2026-05-09 11:27 | 43.43390 | 19.65073 | 19783 ft | 325 kts | 186° |
| 2026-05-09 11:27 | 43.41146 | 19.64725 | 19446 ft | 323 kts | 186° |
| 2026-05-09 11:27 | 43.38912 | 19.64379 | 19109 ft | 322 kts | 186° |
| 2026-05-09 11:27 | 43.36697 | 19.64036 | 18774 ft | 320 kts | 186° |
| 2026-05-09 11:28 | 43.34509 | 19.63698 | 18444 ft | 319 kts | 186° |
| 2026-05-09 11:28 | 43.32307 | 19.63357 | 18075 ft | 318 kts | 186° |
| 2026-05-09 11:28 | 43.30103 | 19.63017 | 17713 ft | 316 kts | 186° |
| 2026-05-09 11:28 | 43.27921 | 19.62683 | 17354 ft | 314 kts | 188° |
| 2026-05-09 11:29 | 43.25747 | 19.62348 | 17036 ft | 317 kts | 188° |
| 2026-05-09 11:29 | 43.23533 | 19.62007 | 16702 ft | 322 kts | 188° |
| 2026-05-09 11:29 | 43.21291 | 19.61662 | 16357 ft | 324 kts | 188° |
| 2026-05-09 11:29 | 43.19080 | 19.61321 | 16032 ft | 323 kts | 188° |
| 2026-05-09 11:30 | 43.16867 | 19.60980 | 15708 ft | 320 kts | 188° |
| 2026-05-09 11:30 | 43.14652 | 19.60641 | 15360 ft | 319 kts | 188° |
| 2026-05-09 11:30 | 43.12451 | 19.60303 | 15025 ft | 319 kts | 188° |
| 2026-05-09 11:30 | 43.11001 | 19.60081 | 14809 ft | 319 kts | 188° |
| 2026-05-09 11:31 | 43.08799 | 19.59743 | 14467 ft | 319 kts | 188° |
| 2026-05-09 11:31 | 43.06587 | 19.59404 | 14132 ft | 319 kts | 188° |
| 2026-05-09 11:31 | 43.04382 | 19.59067 | 13780 ft | 319 kts | 188° |
| 2026-05-09 11:31 | 43.02174 | 19.58729 | 13357 ft | 319 kts | 188° |
| 2026-05-09 11:32 | 42.99972 | 19.58392 | 13005 ft | 317 kts | 188° |
| 2026-05-09 11:32 | 42.97790 | 19.58059 | 12664 ft | 314 kts | 187° |
| 2026-05-09 11:32 | 42.95615 | 19.57728 | 12332 ft | 313 kts | 187° |
| 2026-05-09 11:32 | 42.93487 | 19.57128 | 11957 ft | 313 kts | 202° |
| 2026-05-09 11:33 | 42.91543 | 19.55905 | 11615 ft | 310 kts | 205° |
| 2026-05-09 11:33 | 42.89575 | 19.54726 | 11308 ft | 308 kts | 204° |
| 2026-05-09 11:33 | 42.85659 | 19.52441 | 10659 ft | 305 kts | 204° |
| 2026-05-09 11:34 | 42.83709 | 19.51310 | 10333 ft | 303 kts | 203° |
| 2026-05-09 11:34 | 42.81780 | 19.50196 | 10132 ft | 298 kts | 203° |
| 2026-05-09 11:34 | 42.79881 | 19.49099 | 9909 ft | 296 kts | 203° |
| 2026-05-09 11:34 | 42.77983 | 19.48004 | 9556 ft | 297 kts | 203° |
| 2026-05-09 11:35 | 42.76085 | 19.46910 | 9178 ft | 296 kts | 203° |
| 2026-05-09 11:35 | 42.74189 | 19.45817 | 8834 ft | 295 kts | 203° |
| 2026-05-09 11:35 | 42.72311 | 19.44735 | 8530 ft | 292 kts | 203° |
| 2026-05-09 11:35 | 42.70442 | 19.43659 | 8224 ft | 290 kts | 203° |
| 2026-05-09 11:36 | 42.68601 | 19.42599 | 7924 ft | 289 kts | 203° |
| 2026-05-09 11:36 | 42.66749 | 19.41534 | 7604 ft | 289 kts | 203° |
| 2026-05-09 11:36 | 42.64894 | 19.40466 | 7293 ft | 291 kts | 203° |
| 2026-05-09 11:36 | 42.63024 | 19.39394 | 6949 ft | 293 kts | 203° |
| 2026-05-09 11:37 | 42.61155 | 19.38322 | 6614 ft | 288 kts | 202° |
| 2026-05-09 11:37 | 42.59331 | 19.37277 | 6279 ft | 283 kts | 203° |
| 2026-05-09 11:37 | 42.57532 | 19.36247 | 5999 ft | 277 kts | 203° |
| 2026-05-09 11:37 | 42.55785 | 19.35246 | 5890 ft | 268 kts | 203° |
| 2026-05-09 11:38 | 42.54095 | 19.34278 | 5784 ft | 258 kts | 203° |
| 2026-05-09 11:38 | 42.52463 | 19.33344 | 5583 ft | 253 kts | 203° |
| 2026-05-09 11:38 | 42.50845 | 19.32418 | 5301 ft | 252 kts | 203° |
| 2026-05-09 11:38 | 42.49229 | 19.31494 | 5036 ft | 250 kts | 203° |
| 2026-05-09 11:39 | 42.47653 | 19.30595 | 4924 ft | 241 kts | 203° |
| 2026-05-09 11:39 | 42.46118 | 19.29719 | 4689 ft | 238 kts | 203° |
| 2026-05-09 11:39 | 42.44617 | 19.28862 | 4585 ft | 229 kts | 203° |
| 2026-05-09 11:40 | 42.41842 | 19.27278 | 4131 ft | 213 kts | 202° |
| 2026-05-09 11:40 | 42.40501 | 19.26513 | 3889 ft | 206 kts | 202° |
| 2026-05-09 11:40 | 42.39170 | 19.25779 | 3544 ft | 205 kts | 198° |
| 2026-05-09 11:40 | 42.37776 | 19.25669 | 3203 ft | 201 kts | 169° |
| 2026-05-09 11:41 | 42.36409 | 19.26010 | 3101 ft | 201 kts | 171° |
| 2026-05-09 11:41 | 42.35052 | 19.26457 | 2997 ft | 202 kts | 152° |
| 2026-05-09 11:41 | 42.34111 | 19.27813 | 2986 ft | 201 kts | 123° |
| 2026-05-09 11:41 | 42.33185 | 19.29220 | 2950 ft | 201 kts | 150° |
| 2026-05-09 11:42 | 42.31905 | 19.29471 | 2876 ft | 185 kts | 197° |
| 2026-05-09 11:42 | 42.30909 | 19.28468 | 2987 ft | 182 kts | 232° |
| 2026-05-09 11:42 | 42.30490 | 19.26916 | 2895 ft | 172 kts | 269° |
| 2026-05-09 11:42 | 42.30843 | 19.25534 | 2790 ft | 151 kts | 311° |
| 2026-05-09 11:43 | 42.31697 | 19.24775 | 2586 ft | 149 kts | 348° |
| 2026-05-09 11:43 | 42.32725 | 19.24660 | 2379 ft | 148 kts | 357° |
| 2026-05-09 11:43 | 42.33738 | 19.24302 | 2349 ft | 157 kts | 325° |
| 2026-05-09 11:43 | 42.34344 | 19.23102 | 2378 ft | 161 kts | 277° |
| 2026-05-09 11:44 | 42.34384 | 19.21827 | 3571 ft | 119 kts | 271° |
| 2026-05-09 11:44 | 42.34451 | 19.20597 | 3714 ft | 143 kts | 275° |
| 2026-05-09 11:44 | 42.34429 | 19.19219 | 3451 ft | 150 kts | 253° |
| 2026-05-09 11:44 | 42.33817 | 19.18057 | 2980 ft | 170 kts | 211° |
| 2026-05-09 11:45 | 42.32724 | 19.17453 | 2792 ft | 171 kts | 194° |
| 2026-05-09 11:45 | 42.31532 | 19.17016 | 2840 ft | 184 kts | 195° |
| 2026-05-09 11:45 | 42.30264 | 19.16556 | 2857 ft | 191 kts | 196° |
| 2026-05-09 11:45 | 42.28966 | 19.16075 | 2828 ft | 195 kts | 195° |
| 2026-05-09 11:46 | 42.27659 | 19.15602 | 2860 ft | 195 kts | 191° |
| 2026-05-09 11:46 | 42.26330 | 19.15709 | 2675 ft | 192 kts | 157° |
| 2026-05-09 11:46 | 42.25340 | 19.16838 | 2452 ft | 187 kts | 125° |
| 2026-05-09 11:46 | 42.24708 | 19.18361 | 2207 ft | 185 kts | 112° |
| 2026-05-09 11:47 | 42.24478 | 19.20027 | 2076 ft | 178 kts | 96° |
| 2026-05-09 11:47 | 42.24435 | 19.21682 | 1984 ft | 177 kts | 85° |
| 2026-05-09 11:47 | 42.24685 | 19.22710 | 1878 ft | 173 kts | 59° |
| 2026-05-09 11:47 | 42.25865 | 19.23858 | 1856 ft | 152 kts | 20° |
| 2026-05-09 11:48 | 42.26876 | 19.24225 | 1716 ft | 148 kts | 10° |
| 2026-05-09 11:48 | 42.27566 | 19.24350 | 1578 ft | 147 kts | 6° |
| 2026-05-09 11:48 | 42.28585 | 19.24446 | 1412 ft | 147 kts | 4° |
| 2026-05-09 11:48 | 42.29600 | 19.24530 | 1231 ft | 147 kts | 7° |
| 2026-05-09 11:49 | 42.30621 | 19.24649 | 969 ft | 146 kts | 7° |
| 2026-05-09 11:49 | 42.31627 | 19.24740 | 852 ft | 145 kts | 5° |
| 2026-05-09 11:49 | 42.32636 | 19.24849 | 620 ft | 145 kts | 8° |
| 2026-05-09 11:49 | 42.33630 | 19.24947 | 386 ft | 141 kts | 6° |
| 2026-05-09 11:50 | 42.34603 | 19.25056 | 191 ft | 141 kts | 4° |
| 2026-05-09 11:50 | 42.35567 | 19.25150 | 110 ft | 126 kts | 4° |
| 2026-05-09 11:50 | 42.36186 | 19.25211 | 116 ft | 54 kts | 4° |
| 2026-05-09 11:50 | 42.36480 | 19.25238 | 129 ft | 26 kts | 4° |
| 2026-05-09 11:51 | 42.36603 | 19.25241 | 128 ft | 11 kts | 327° |
| 2026-05-09 11:51 | 42.36619 | 19.25141 | 129 ft | 11 kts | 274° |
| 2026-05-09 11:51 | 42.36626 | 19.25036 | 123 ft | 4 kts | 275° |
| 2026-05-09 11:51 | 42.36629 | 19.24977 | 122 ft | 10 kts | 275° |
| 2026-05-09 11:52 | 42.36639 | 19.24853 | 116 ft | 14 kts | 286° |
| 2026-05-09 11:52 | 42.36705 | 19.24831 | 118 ft | 11 kts | 4° |
| 2026-05-09 11:52 | 42.36743 | 19.24801 | 120 ft | 6 kts | 265° |
| 2026-05-09 11:52 | 42.36741 | 19.24759 | 119 ft | 4 kts | 272° |
| 2026-05-09 11:53 | 42.36741 | 19.24750 | 119 ft | 0 kts | 273° |